sensor_id;sensor_type;location;lat;lon;timestamp;pressure;altitude;pressure_sealevel;temperature;humidity
64298;BME280;50639;53.270;7.956;2023-09-07T00:00:34;102165.59;;;17.62;81.07
64298;BME280;50639;53.270;7.956;2023-09-07T00:02:59;102166.50;;;17.61;80.97
64298;BME280;50639;53.270;7.956;2023-09-07T00:05:25;102164.13;;;17.58;80.87
64298;BME280;50639;53.270;7.956;2023-09-07T00:07:50;102157.50;;;17.52;81.09
64298;BME280;50639;53.270;7.956;2023-09-07T00:10:16;102165.34;;;17.52;80.65
64298;BME280;50639;53.270;7.956;2023-09-07T00:12:43;102160.13;;;17.52;80.39
64298;BME280;50639;53.270;7.956;2023-09-07T00:15:09;102152.25;;;17.52;80.42
64298;BME280;50639;53.270;7.956;2023-09-07T00:17:36;102158.66;;;17.48;80.25
64298;BME280;50639;53.270;7.956;2023-09-07T00:20:02;102143.97;;;17.46;80.29
64298;BME280;50639;53.270;7.956;2023-09-07T00:22:39;102157.28;;;17.43;80.39
64298;BME280;50639;53.270;7.956;2023-09-07T00:25:05;102154.78;;;17.41;80.35
64298;BME280;50639;53.270;7.956;2023-09-07T00:27:32;102148.16;;;17.36;80.30
64298;BME280;50639;53.270;7.956;2023-09-07T00:29:58;102147.97;;;17.39;80.35
64298;BME280;50639;53.270;7.956;2023-09-07T00:32:24;102138.34;;;17.39;80.31
64298;BME280;50639;53.270;7.956;2023-09-07T00:34:49;102140.22;;;17.37;80.14
64298;BME280;50639;53.270;7.956;2023-09-07T00:37:14;102143.78;;;17.36;80.20
64298;BME280;50639;53.270;7.956;2023-09-07T00:39:40;102144.94;;;17.32;80.32
64298;BME280;50639;53.270;7.956;2023-09-07T00:42:05;102143.53;;;17.26;80.28
64298;BME280;50639;53.270;7.956;2023-09-07T00:44:31;102137.69;;;17.23;80.47
64298;BME280;50639;53.270;7.956;2023-09-07T00:46:57;102141.44;;;17.19;80.56
64298;BME280;50639;53.270;7.956;2023-09-07T00:49:24;102135.69;;;17.14;80.57
64298;BME280;50639;53.270;7.956;2023-09-07T00:51:50;102143.75;;;17.11;80.98
64298;BME280;50639;53.270;7.956;2023-09-07T00:54:16;102150.22;;;17.05;81.72
64298;BME280;50639;53.270;7.956;2023-09-07T00:56:42;102145.19;;;17.02;81.70
64298;BME280;50639;53.270;7.956;2023-09-07T00:59:08;102149.59;;;17.02;81.76
64298;BME280;50639;53.270;7.956;2023-09-07T01:01:35;102154.06;;;17.00;82.16
64298;BME280;50639;53.270;7.956;2023-09-07T01:04:00;102151.56;;;16.98;82.11
64298;BME280;50639;53.270;7.956;2023-09-07T01:06:32;102150.38;;;16.89;82.32
64298;BME280;50639;53.270;7.956;2023-09-07T01:09:03;102151.22;;;16.90;82.50
64298;BME280;50639;53.270;7.956;2023-09-07T01:11:37;102149.44;;;16.90;82.36
64298;BME280;50639;53.270;7.956;2023-09-07T01:14:03;102146.94;;;16.89;82.57
64298;BME280;50639;53.270;7.956;2023-09-07T01:16:30;102148.94;;;16.85;82.84
64298;BME280;50639;53.270;7.956;2023-09-07T01:18:56;102153.41;;;16.83;82.76
64298;BME280;50639;53.270;7.956;2023-09-07T01:21:22;102144.19;;;16.78;83.22
64298;BME280;50639;53.270;7.956;2023-09-07T01:23:49;102150.13;;;16.80;83.01
64298;BME280;50639;53.270;7.956;2023-09-07T01:26:15;102140.84;;;16.76;82.78
64298;BME280;50639;53.270;7.956;2023-09-07T01:28:41;102144.47;;;16.73;82.81
64298;BME280;50639;53.270;7.956;2023-09-07T01:31:07;102141.13;;;16.71;82.68
64298;BME280;50639;53.270;7.956;2023-09-07T01:33:32;102134.41;;;16.67;82.26
64298;BME280;50639;53.270;7.956;2023-09-07T01:35:58;102131.06;;;16.65;82.79
64298;BME280;50639;53.270;7.956;2023-09-07T01:38:23;102126.84;;;16.63;82.61
64298;BME280;50639;53.270;7.956;2023-09-07T01:40:49;102135.81;;;16.59;82.23
64298;BME280;50639;53.270;7.956;2023-09-07T01:43:14;102131.72;;;16.54;82.48
64298;BME280;50639;53.270;7.956;2023-09-07T01:45:40;102130.34;;;16.49;82.28
64298;BME280;50639;53.270;7.956;2023-09-07T01:48:10;102135.75;;;16.46;82.21
64298;BME280;50639;53.270;7.956;2023-09-07T01:50:36;102139.31;;;16.45;82.12
64298;BME280;50639;53.270;7.956;2023-09-07T01:53:01;102137.84;;;16.41;82.05
64298;BME280;50639;53.270;7.956;2023-09-07T01:55:28;102137.09;;;16.39;82.27
64298;BME280;50639;53.270;7.956;2023-09-07T01:57:55;102144.31;;;16.35;82.25
64298;BME280;50639;53.270;7.956;2023-09-07T02:00:21;102133.09;;;16.33;82.82
64298;BME280;50639;53.270;7.956;2023-09-07T02:02:46;102144.50;;;16.32;82.91
64298;BME280;50639;53.270;7.956;2023-09-07T02:05:11;102146.53;;;16.27;83.23
64298;BME280;50639;53.270;7.956;2023-09-07T02:07:37;102143.84;;;16.29;82.97
64298;BME280;50639;53.270;7.956;2023-09-07T02:10:03;102143.94;;;16.27;82.97
64298;BME280;50639;53.270;7.956;2023-09-07T02:12:29;102149.28;;;16.26;83.10
64298;BME280;50639;53.270;7.956;2023-09-07T02:14:55;102154.50;;;16.26;83.35
64298;BME280;50639;53.270;7.956;2023-09-07T02:17:20;102147.59;;;16.25;83.54
64298;BME280;50639;53.270;7.956;2023-09-07T02:19:46;102140.69;;;16.24;83.92
64298;BME280;50639;53.270;7.956;2023-09-07T02:22:11;102143.22;;;16.25;84.04
64298;BME280;50639;53.270;7.956;2023-09-07T02:24:37;102146.09;;;16.21;84.24
64298;BME280;50639;53.270;7.956;2023-09-07T02:27:03;102147.97;;;16.18;84.17
64298;BME280;50639;53.270;7.956;2023-09-07T02:29:28;102143.78;;;16.16;83.59
64298;BME280;50639;53.270;7.956;2023-09-07T02:31:54;102141.25;;;16.14;83.85
64298;BME280;50639;53.270;7.956;2023-09-07T02:34:21;102144.28;;;16.08;83.63
64298;BME280;50639;53.270;7.956;2023-09-07T02:36:46;102136.59;;;16.05;83.48
64298;BME280;50639;53.270;7.956;2023-09-07T02:39:12;102144.34;;;16.07;83.65
64298;BME280;50639;53.270;7.956;2023-09-07T02:41:38;102140.06;;;16.06;83.86
64298;BME280;50639;53.270;7.956;2023-09-07T02:44:04;102137.53;;;16.04;84.03
64298;BME280;50639;53.270;7.956;2023-09-07T02:46:30;102137.34;;;16.07;83.95
64298;BME280;50639;53.270;7.956;2023-09-07T02:48:58;102138.28;;;16.06;83.88
64298;BME280;50639;53.270;7.956;2023-09-07T02:51:25;102135.69;;;16.06;83.63
64298;BME280;50639;53.270;7.956;2023-09-07T02:53:51;102140.16;;;16.04;83.48
64298;BME280;50639;53.270;7.956;2023-09-07T02:56:17;102143.91;;;16.00;84.32
64298;BME280;50639;53.270;7.956;2023-09-07T02:58:43;102142.75;;;16.04;84.26
64298;BME280;50639;53.270;7.956;2023-09-07T03:01:13;102128.84;;;16.04;84.33
64298;BME280;50639;53.270;7.956;2023-09-07T03:03:39;102134.75;;;16.07;83.86
64298;BME280;50639;53.270;7.956;2023-09-07T03:06:13;102128.69;;;16.07;83.66
64298;BME280;50639;53.270;7.956;2023-09-07T03:08:42;102138.28;;;16.06;83.89
64298;BME280;50639;53.270;7.956;2023-09-07T03:11:08;102133.91;;;16.07;83.76
64298;BME280;50639;53.270;7.956;2023-09-07T03:13:35;102143.53;;;16.06;83.66
64298;BME280;50639;53.270;7.956;2023-09-07T03:16:03;102142.84;;;16.03;83.63
64298;BME280;50639;53.270;7.956;2023-09-07T03:18:29;102136.78;;;16.02;83.50
64298;BME280;50639;53.270;7.956;2023-09-07T03:20:55;102139.31;;;16.04;83.20
64298;BME280;50639;53.270;7.956;2023-09-07T03:23:22;102141.16;;;16.02;83.53
64298;BME280;50639;53.270;7.956;2023-09-07T03:25:48;102145.78;;;15.98;83.48
64298;BME280;50639;53.270;7.956;2023-09-07T03:28:14;102151.25;;;15.94;83.56
64298;BME280;50639;53.270;7.956;2023-09-07T03:30:39;102146.25;;;15.91;83.61
64298;BME280;50639;53.270;7.956;2023-09-07T03:33:06;102147.44;;;15.85;83.99
64298;BME280;50639;53.270;7.956;2023-09-07T03:35:33;102145.66;;;15.86;84.08
64298;BME280;50639;53.270;7.956;2023-09-07T03:37:58;102140.53;;;15.84;83.96
64298;BME280;50639;53.270;7.956;2023-09-07T03:40:24;102144.19;;;15.82;83.78
64298;BME280;50639;53.270;7.956;2023-09-07T03:42:49;102149.50;;;15.80;83.97
64298;BME280;50639;53.270;7.956;2023-09-07T03:45:15;102140.25;;;15.74;83.97
64298;BME280;50639;53.270;7.956;2023-09-07T03:47:41;102143.81;;;15.73;84.26
64298;BME280;50639;53.270;7.956;2023-09-07T03:50:09;102149.06;;;15.73;84.28
64298;BME280;50639;53.270;7.956;2023-09-07T03:52:35;102139.44;;;15.74;84.46
64298;BME280;50639;53.270;7.956;2023-09-07T03:55:02;102141.38;;;15.70;84.60
64298;BME280;50639;53.270;7.956;2023-09-07T03:57:28;102142.59;;;15.65;84.64
64298;BME280;50639;53.270;7.956;2023-09-07T03:59:53;102144.47;;;15.63;84.46
64298;BME280;50639;53.270;7.956;2023-09-07T04:02:20;102146.63;;;15.56;84.30
64298;BME280;50639;53.270;7.956;2023-09-07T04:04:51;102142.22;;;15.57;84.35
64298;BME280;50639;53.270;7.956;2023-09-07T04:07:16;102151.72;;;15.58;84.42
64298;BME280;50639;53.270;7.956;2023-09-07T04:09:42;102154.34;;;15.58;84.04
64298;BME280;50639;53.270;7.956;2023-09-07T04:12:09;102154.59;;;15.53;84.06
64298;BME280;50639;53.270;7.956;2023-09-07T04:14:34;102163.31;;;15.54;84.59
64298;BME280;50639;53.270;7.956;2023-09-07T04:17:00;102155.38;;;15.55;84.17
64298;BME280;50639;53.270;7.956;2023-09-07T04:19:25;102159.91;;;15.52;84.07
64298;BME280;50639;53.270;7.956;2023-09-07T04:21:51;102154.84;;;15.49;83.99
64298;BME280;50639;53.270;7.956;2023-09-07T04:24:17;102156.53;;;15.50;84.27
64298;BME280;50639;53.270;7.956;2023-09-07T04:26:42;102153.28;;;15.46;83.53
64298;BME280;50639;53.270;7.956;2023-09-07T04:29:08;102150.09;;;15.41;84.14
64298;BME280;50639;53.270;7.956;2023-09-07T04:31:34;102151.97;;;15.39;84.14
64298;BME280;50639;53.270;7.956;2023-09-07T04:33:59;102152.22;;;15.34;84.35
64298;BME280;50639;53.270;7.956;2023-09-07T04:36:26;102154.00;;;15.34;84.14
64298;BME280;50639;53.270;7.956;2023-09-07T04:38:51;102154.84;;;15.34;84.08
64298;BME280;50639;53.270;7.956;2023-09-07T04:41:17;102152.22;;;15.34;84.16
64298;BME280;50639;53.270;7.956;2023-09-07T04:43:43;102154.66;;;15.37;84.04
64298;BME280;50639;53.270;7.956;2023-09-07T04:46:10;102157.44;;;15.34;84.18
64298;BME280;50639;53.270;7.956;2023-09-07T04:48:40;102148.59;;;15.37;84.19
64298;BME280;50639;53.270;7.956;2023-09-07T04:51:10;102151.13;;;15.38;84.44
64298;BME280;50639;53.270;7.956;2023-09-07T04:53:39;102155.59;;;15.36;84.32
64298;BME280;50639;53.270;7.956;2023-09-07T04:56:06;102152.91;;;15.38;84.38
64298;BME280;50639;53.270;7.956;2023-09-07T04:58:32;102163.50;;;15.35;84.50
64298;BME280;50639;53.270;7.956;2023-09-07T05:01:05;102156.78;;;15.31;84.44
64298;BME280;50639;53.270;7.956;2023-09-07T05:03:32;102160.91;;;15.35;84.40
64298;BME280;50639;53.270;7.956;2023-09-07T05:05:59;102165.28;;;15.34;84.54
64298;BME280;50639;53.270;7.956;2023-09-07T05:08:25;102166.97;;;15.35;84.52
64298;BME280;50639;53.270;7.956;2023-09-07T05:11:00;102172.19;;;15.35;84.49
64298;BME280;50639;53.270;7.956;2023-09-07T05:13:26;102168.66;;;15.36;84.64
64298;BME280;50639;53.270;7.956;2023-09-07T05:15:54;102175.72;;;15.34;84.57
64298;BME280;50639;53.270;7.956;2023-09-07T05:18:20;102174.63;;;15.38;84.68
64298;BME280;50639;53.270;7.956;2023-09-07T05:20:46;102171.81;;;15.41;84.80
64298;BME280;50639;53.270;7.956;2023-09-07T05:23:21;102176.88;;;15.44;84.38
64298;BME280;50639;53.270;7.956;2023-09-07T05:25:51;102174.81;;;15.50;84.34
64298;BME280;50639;53.270;7.956;2023-09-07T05:28:22;102188.50;;;15.55;84.24
64298;BME280;50639;53.270;7.956;2023-09-07T05:30:49;102182.47;;;15.53;84.04
64298;BME280;50639;53.270;7.956;2023-09-07T05:33:16;102187.44;;;15.57;84.11
64298;BME280;50639;53.270;7.956;2023-09-07T05:35:43;102189.81;;;15.62;84.12
64298;BME280;50639;53.270;7.956;2023-09-07T05:38:09;102183.34;;;15.67;84.20
64298;BME280;50639;53.270;7.956;2023-09-07T05:40:37;102179.44;;;15.74;84.09
64298;BME280;50639;53.270;7.956;2023-09-07T05:43:03;102186.94;;;15.80;83.92
64298;BME280;50639;53.270;7.956;2023-09-07T05:45:31;102177.88;;;15.86;83.73
64298;BME280;50639;53.270;7.956;2023-09-07T05:47:59;102185.44;;;15.91;83.38
64298;BME280;50639;53.270;7.956;2023-09-07T05:50:24;102182.53;;;15.95;83.28
64298;BME280;50639;53.270;7.956;2023-09-07T05:52:50;102178.44;;;16.05;83.22
64298;BME280;50639;53.270;7.956;2023-09-07T05:55:15;102182.44;;;16.11;83.19
64298;BME280;50639;53.270;7.956;2023-09-07T05:57:41;102172.44;;;16.17;82.89
64298;BME280;50639;53.270;7.956;2023-09-07T06:00:07;102173.66;;;16.26;82.97
64298;BME280;50639;53.270;7.956;2023-09-07T06:02:38;102171.47;;;16.33;82.86
64298;BME280;50639;53.270;7.956;2023-09-07T06:05:05;102181.38;;;16.42;82.75
64298;BME280;50639;53.270;7.956;2023-09-07T06:07:31;102180.97;;;16.48;82.81
64298;BME280;50639;53.270;7.956;2023-09-07T06:09:56;102184.78;;;16.56;82.52
64298;BME280;50639;53.270;7.956;2023-09-07T06:12:24;102183.38;;;16.65;82.52
64298;BME280;50639;53.270;7.956;2023-09-07T06:14:50;102181.09;;;16.73;82.33
64298;BME280;50639;53.270;7.956;2023-09-07T06:17:15;102181.34;;;16.83;82.12
64298;BME280;50639;53.270;7.956;2023-09-07T06:19:41;102184.22;;;16.92;82.58
64298;BME280;50639;53.270;7.956;2023-09-07T06:22:07;102191.28;;;17.05;81.57
64298;BME280;50639;53.270;7.956;2023-09-07T06:24:32;102187.13;;;17.15;81.52
64298;BME280;50639;53.270;7.956;2023-09-07T06:26:58;102184.94;;;17.21;80.77
64298;BME280;50639;53.270;7.956;2023-09-07T06:29:23;102191.09;;;17.33;80.90
64298;BME280;50639;53.270;7.956;2023-09-07T06:31:49;102187.03;;;17.42;80.66
64298;BME280;50639;53.270;7.956;2023-09-07T06:34:16;102195.13;;;17.51;80.30
64298;BME280;50639;53.270;7.956;2023-09-07T06:36:41;102194.72;;;17.57;80.18
64298;BME280;50639;53.270;7.956;2023-09-07T06:39:07;102190.56;;;17.67;80.00
64298;BME280;50639;53.270;7.956;2023-09-07T06:41:32;102196.00;;;17.77;79.68
64298;BME280;50639;53.270;7.956;2023-09-07T06:43:58;102191.91;;;17.86;79.44
64298;BME280;50639;53.270;7.956;2023-09-07T06:46:23;102198.19;;;17.96;79.11
64298;BME280;50639;53.270;7.956;2023-09-07T06:48:49;102195.16;;;18.02;78.83
64298;BME280;50639;53.270;7.956;2023-09-07T06:51:15;102194.38;;;18.13;78.50
64298;BME280;50639;53.270;7.956;2023-09-07T06:53:40;102197.09;;;18.24;78.20
64298;BME280;50639;53.270;7.956;2023-09-07T06:56:06;102192.13;;;18.32;78.21
64298;BME280;50639;53.270;7.956;2023-09-07T06:58:32;102196.75;;;18.41;77.63
64298;BME280;50639;53.270;7.956;2023-09-07T07:00:59;102198.09;;;18.47;77.13
64298;BME280;50639;53.270;7.956;2023-09-07T07:03:27;102191.25;;;18.57;76.90
64298;BME280;50639;53.270;7.956;2023-09-07T07:05:53;102201.94;;;18.66;76.82
64298;BME280;50639;53.270;7.956;2023-09-07T07:08:19;102203.78;;;18.77;76.43
64298;BME280;50639;53.270;7.956;2023-09-07T07:10:44;102212.03;;;18.84;76.33
64298;BME280;50639;53.270;7.956;2023-09-07T07:13:11;102202.53;;;18.94;76.09
64298;BME280;50639;53.270;7.956;2023-09-07T07:15:36;102208.81;;;19.04;75.82
64298;BME280;50639;53.270;7.956;2023-09-07T07:18:02;102200.34;;;19.11;75.50
64298;BME280;50639;53.270;7.956;2023-09-07T07:20:35;102203.22;;;19.20;75.64
64298;BME280;50639;53.270;7.956;2023-09-07T07:23:00;102212.94;;;19.30;75.49
64298;BME280;50639;53.270;7.956;2023-09-07T07:25:26;102211.41;;;19.39;74.96
64298;BME280;50639;53.270;7.956;2023-09-07T07:27:51;102209.91;;;19.47;74.60
64298;BME280;50639;53.270;7.956;2023-09-07T07:30:17;102216.38;;;19.54;74.46
64298;BME280;50639;53.270;7.956;2023-09-07T07:32:43;102213.91;;;19.64;74.39
64298;BME280;50639;53.270;7.956;2023-09-07T07:35:08;102213.41;;;19.70;73.91
64298;BME280;50639;53.270;7.956;2023-09-07T07:37:33;102219.06;;;19.77;73.92
64298;BME280;50639;53.270;7.956;2023-09-07T07:39:59;102221.09;;;19.84;73.50
64298;BME280;50639;53.270;7.956;2023-09-07T07:42:24;102221.34;;;19.92;73.10
64298;BME280;50639;53.270;7.956;2023-09-07T07:44:50;102219.78;;;20.01;72.65
64298;BME280;50639;53.270;7.956;2023-09-07T07:47:15;102225.41;;;20.08;72.55
64298;BME280;50639;53.270;7.956;2023-09-07T07:49:42;102225.53;;;20.17;72.68
64298;BME280;50639;53.270;7.956;2023-09-07T07:52:07;102226.59;;;20.26;72.19
64298;BME280;50639;53.270;7.956;2023-09-07T07:54:34;102235.47;;;20.36;71.78
64298;BME280;50639;53.270;7.956;2023-09-07T07:57:00;102234.25;;;20.51;71.09
64298;BME280;50639;53.270;7.956;2023-09-07T07:59:26;102236.16;;;20.60;70.71
64298;BME280;50639;53.270;7.956;2023-09-07T08:01:51;102239.72;;;20.71;70.04
64298;BME280;50639;53.270;7.956;2023-09-07T08:04:17;102237.41;;;20.77;69.94
64298;BME280;50639;53.270;7.956;2023-09-07T08:06:43;102232.34;;;20.85;69.47
64298;BME280;50639;53.270;7.956;2023-09-07T08:09:08;102230.53;;;20.97;69.15
64298;BME280;50639;53.270;7.956;2023-09-07T08:11:35;102231.69;;;21.04;69.24
64298;BME280;50639;53.270;7.956;2023-09-07T08:14:01;102235.38;;;21.13;69.21
64298;BME280;50639;53.270;7.956;2023-09-07T08:16:27;102227.22;;;21.16;68.87
64298;BME280;50639;53.270;7.956;2023-09-07T08:18:53;102231.28;;;21.20;69.05
64298;BME280;50639;53.270;7.956;2023-09-07T08:21:19;102228.75;;;21.29;68.08
64298;BME280;50639;53.270;7.956;2023-09-07T08:23:45;102219.94;;;21.40;67.58
64298;BME280;50639;53.270;7.956;2023-09-07T08:26:11;102227.19;;;21.48;67.25
64298;BME280;50639;53.270;7.956;2023-09-07T08:28:40;102225.47;;;21.58;66.92
64298;BME280;50639;53.270;7.956;2023-09-07T08:31:06;102218.44;;;21.68;66.57
64298;BME280;50639;53.270;7.956;2023-09-07T08:33:32;102214.31;;;21.75;66.09
64298;BME280;50639;53.270;7.956;2023-09-07T08:36:00;102219.53;;;21.86;66.74
64298;BME280;50639;53.270;7.956;2023-09-07T08:38:26;102219.69;;;21.94;66.16
64298;BME280;50639;53.270;7.956;2023-09-07T08:41:01;102223.78;;;21.98;66.20
64298;BME280;50639;53.270;7.956;2023-09-07T08:43:28;102224.78;;;22.07;65.64
64298;BME280;50639;53.270;7.956;2023-09-07T08:46:04;102226.31;;;22.09;65.59
64298;BME280;50639;53.270;7.956;2023-09-07T08:48:30;102217.88;;;22.16;64.89
64298;BME280;50639;53.270;7.956;2023-09-07T08:50:56;102218.88;;;22.24;64.84
64298;BME280;50639;53.270;7.956;2023-09-07T08:53:22;102219.88;;;22.33;65.00
64298;BME280;50639;53.270;7.956;2023-09-07T08:55:48;102219.31;;;22.39;64.24
64298;BME280;50639;53.270;7.956;2023-09-07T08:58:14;102215.88;;;22.48;63.87
64298;BME280;50639;53.270;7.956;2023-09-07T09:00:39;102208.09;;;22.56;63.92
64298;BME280;50639;53.270;7.956;2023-09-07T09:03:09;102206.44;;;22.65;63.46
64298;BME280;50639;53.270;7.956;2023-09-07T09:05:38;102210.34;;;22.70;63.81
64298;BME280;50639;53.270;7.956;2023-09-07T09:08:04;102213.16;;;22.78;63.47
64298;BME280;50639;53.270;7.956;2023-09-07T09:10:30;102209.84;;;22.86;62.87
64298;BME280;50639;53.270;7.956;2023-09-07T09:12:56;102209.56;;;22.99;62.28
64298;BME280;50639;53.270;7.956;2023-09-07T09:15:22;102210.53;;;23.07;62.23
64298;BME280;50639;53.270;7.956;2023-09-07T09:17:48;102212.06;;;23.19;62.47
64298;BME280;50639;53.270;7.956;2023-09-07T09:20:26;102204.38;;;23.26;60.98
64298;BME280;50639;53.270;7.956;2023-09-07T09:22:55;102194.50;;;23.28;60.19
64298;BME280;50639;53.270;7.956;2023-09-07T09:25:21;102200.63;;;23.38;60.26
64298;BME280;50639;53.270;7.956;2023-09-07T09:27:47;102210.63;;;23.44;60.52
64298;BME280;50639;53.270;7.956;2023-09-07T09:30:13;102205.19;;;23.46;59.69
64298;BME280;50639;53.270;7.956;2023-09-07T09:32:42;102204.22;;;23.56;59.99
64298;BME280;50639;53.270;7.956;2023-09-07T09:35:08;102209.63;;;23.65;60.36
64298;BME280;50639;53.270;7.956;2023-09-07T09:37:46;102199.16;;;23.73;59.24
64298;BME280;50639;53.270;7.956;2023-09-07T09:40:13;102198.44;;;23.80;59.72
64298;BME280;50639;53.270;7.956;2023-09-07T09:42:41;102200.34;;;23.88;59.45
64298;BME280;50639;53.270;7.956;2023-09-07T09:45:07;102199.75;;;23.94;60.02
64298;BME280;50639;53.270;7.956;2023-09-07T09:47:38;102204.91;;;23.95;59.24
64298;BME280;50639;53.270;7.956;2023-09-07T09:50:06;102192.75;;;24.02;59.14
64298;BME280;50639;53.270;7.956;2023-09-07T09:52:34;102197.31;;;24.10;58.36
64298;BME280;50639;53.270;7.956;2023-09-07T09:55:00;102197.03;;;24.13;58.01
64298;BME280;50639;53.270;7.956;2023-09-07T09:57:25;102196.03;;;24.24;58.90
64298;BME280;50639;53.270;7.956;2023-09-07T09:59:53;102190.47;;;24.27;58.01
64298;BME280;50639;53.270;7.956;2023-09-07T10:02:19;102186.59;;;24.39;58.17
64298;BME280;50639;53.270;7.956;2023-09-07T10:04:45;102184.88;;;24.48;57.29
64298;BME280;50639;53.270;7.956;2023-09-07T10:07:11;102180.41;;;24.48;58.43
64298;BME280;50639;53.270;7.956;2023-09-07T10:09:37;102175.50;;;24.53;58.37
64298;BME280;50639;53.270;7.956;2023-09-07T10:12:03;102166.72;;;24.53;58.29
64298;BME280;50639;53.270;7.956;2023-09-07T10:14:42;102178.53;;;24.58;58.01
64298;BME280;50639;53.270;7.956;2023-09-07T10:17:09;102170.09;;;24.63;57.32
64298;BME280;50639;53.270;7.956;2023-09-07T10:19:35;102161.25;;;24.72;58.10
64298;BME280;50639;53.270;7.956;2023-09-07T10:22:03;102166.47;;;24.82;57.02
64298;BME280;50639;53.270;7.956;2023-09-07T10:24:33;102162.69;;;24.84;57.27
64298;BME280;50639;53.270;7.956;2023-09-07T10:27:03;102155.56;;;24.85;55.68
64298;BME280;50639;53.270;7.956;2023-09-07T10:29:41;102159.84;;;24.95;57.00
64298;BME280;50639;53.270;7.956;2023-09-07T10:32:07;102155.59;;;25.02;56.66
64298;BME280;50639;53.270;7.956;2023-09-07T10:34:37;102163.00;;;24.99;55.24
64298;BME280;50639;53.270;7.956;2023-09-07T10:37:04;102158.09;;;25.04;56.43
64298;BME280;50639;53.270;7.956;2023-09-07T10:39:31;102164.28;;;25.13;56.15
64298;BME280;50639;53.270;7.956;2023-09-07T10:41:57;102160.31;;;25.17;56.24
64298;BME280;50639;53.270;7.956;2023-09-07T10:44:26;102167.19;;;25.27;56.76
64298;BME280;50639;53.270;7.956;2023-09-07T10:46:54;102166.88;;;25.30;55.43
64298;BME280;50639;53.270;7.956;2023-09-07T10:49:19;102153.16;;;25.35;54.56
64298;BME280;50639;53.270;7.956;2023-09-07T10:51:46;102156.28;;;25.30;55.43
64298;BME280;50639;53.270;7.956;2023-09-07T10:54:22;102159.44;;;25.34;55.05
64298;BME280;50639;53.270;7.956;2023-09-07T10:56:49;102152.69;;;25.39;55.80
64298;BME280;50639;53.270;7.956;2023-09-07T10:59:15;102159.13;;;25.37;55.96
64298;BME280;50639;53.270;7.956;2023-09-07T11:01:41;102149.41;;;25.45;55.43
64298;BME280;50639;53.270;7.956;2023-09-07T11:04:07;102146.28;;;25.50;55.33
64298;BME280;50639;53.270;7.956;2023-09-07T11:06:34;102139.50;;;25.56;55.17
64298;BME280;50639;53.270;7.956;2023-09-07T11:09:00;102138.44;;;25.66;55.25
64298;BME280;50639;53.270;7.956;2023-09-07T11:11:31;102135.66;;;25.76;54.75
64298;BME280;50639;53.270;7.956;2023-09-07T11:13:57;102135.31;;;25.79;54.34
64298;BME280;50639;53.270;7.956;2023-09-07T11:16:24;102132.34;;;25.82;54.62
64298;BME280;50639;53.270;7.956;2023-09-07T11:18:50;102125.41;;;25.89;54.05
64298;BME280;50639;53.270;7.956;2023-09-07T11:21:16;102126.09;;;25.91;54.04
64298;BME280;50639;53.270;7.956;2023-09-07T11:23:42;102128.91;;;25.98;54.28
64298;BME280;50639;53.270;7.956;2023-09-07T11:26:08;102123.75;;;25.96;54.57
64298;BME280;50639;53.270;7.956;2023-09-07T11:28:34;102114.00;;;26.05;55.38
64298;BME280;50639;53.270;7.956;2023-09-07T11:31:00;102120.66;;;26.09;54.62
64298;BME280;50639;53.270;7.956;2023-09-07T11:33:26;102122.66;;;26.15;54.03
64298;BME280;50639;53.270;7.956;2023-09-07T11:35:53;102120.19;;;26.21;53.45
64298;BME280;50639;53.270;7.956;2023-09-07T11:38:21;102120.72;;;26.33;53.28
64298;BME280;50639;53.270;7.956;2023-09-07T11:40:47;102112.28;;;26.38;52.48
64298;BME280;50639;53.270;7.956;2023-09-07T11:43:17;102115.44;;;26.49;52.41
64298;BME280;50639;53.270;7.956;2023-09-07T11:45:46;102105.81;;;26.56;52.12
64298;BME280;50639;53.270;7.956;2023-09-07T11:48:12;102105.63;;;26.58;50.13
64298;BME280;50639;53.270;7.956;2023-09-07T11:50:38;102095.19;;;26.65;51.40
64298;BME280;50639;53.270;7.956;2023-09-07T11:53:04;102097.03;;;26.64;50.30
64298;BME280;50639;53.270;7.956;2023-09-07T11:55:31;102097.50;;;26.76;50.80
64298;BME280;50639;53.270;7.956;2023-09-07T11:57:56;102096.19;;;26.80;50.07
64298;BME280;50639;53.270;7.956;2023-09-07T12:00:22;102095.50;;;26.86;50.44
64298;BME280;50639;53.270;7.956;2023-09-07T12:02:47;102093.69;;;26.94;49.60
64298;BME280;50639;53.270;7.956;2023-09-07T12:05:13;102088.53;;;26.93;48.82
64298;BME280;50639;53.270;7.956;2023-09-07T12:07:41;102084.03;;;27.02;48.28
64298;BME280;50639;53.270;7.956;2023-09-07T12:10:07;102086.88;;;27.08;48.83
64298;BME280;50639;53.270;7.956;2023-09-07T12:12:41;102084.84;;;27.10;47.73
64298;BME280;50639;53.270;7.956;2023-09-07T12:15:07;102083.19;;;27.17;47.76
64298;BME280;50639;53.270;7.956;2023-09-07T12:17:34;102082.16;;;27.18;47.55
64298;BME280;50639;53.270;7.956;2023-09-07T12:20:00;102085.47;;;27.20;48.63
64298;BME280;50639;53.270;7.956;2023-09-07T12:22:26;102078.47;;;27.27;47.39
64298;BME280;50639;53.270;7.956;2023-09-07T12:24:52;102083.75;;;27.35;46.77
64298;BME280;50639;53.270;7.956;2023-09-07T12:27:18;102083.25;;;27.40;46.92
64298;BME280;50639;53.270;7.956;2023-09-07T12:29:44;102082.44;;;27.40;46.85
64298;BME280;50639;53.270;7.956;2023-09-07T12:32:09;102070.78;;;27.41;45.60
64298;BME280;50639;53.270;7.956;2023-09-07T12:34:35;102069.81;;;27.33;45.33
64298;BME280;50639;53.270;7.956;2023-09-07T12:37:01;102073.94;;;27.36;45.71
64298;BME280;50639;53.270;7.956;2023-09-07T12:39:29;102072.47;;;27.33;46.59
64298;BME280;50639;53.270;7.956;2023-09-07T12:41:54;102064.09;;;27.45;44.83
64298;BME280;50639;53.270;7.956;2023-09-07T12:44:20;102067.97;;;27.42;45.69
64298;BME280;50639;53.270;7.956;2023-09-07T12:46:46;102059.59;;;27.45;45.67